createdAt,value
2019-03-02T00:00:09.551Z,0
2019-03-02T00:01:20.718Z,0
2019-03-02T00:02:31.578Z,0
2019-03-02T00:03:42.221Z,0
2019-03-02T00:04:53.935Z,0
2019-03-02T00:06:05.971Z,0
2019-03-02T00:07:18.575Z,0
2019-03-02T00:08:30.009Z,0
2019-03-02T00:09:41.797Z,0
2019-03-02T00:10:52.773Z,0
2019-03-02T00:12:03.862Z,0
2019-03-02T00:13:14.802Z,0
2019-03-02T00:14:26.511Z,0
2019-03-02T00:15:38.036Z,0
2019-03-02T00:16:50.601Z,0
2019-03-02T00:18:02.445Z,0
2019-03-02T00:19:14.086Z,0
2019-03-02T00:20:25.399Z,0
2019-03-02T00:21:38.408Z,0
2019-03-02T00:22:50.879Z,0
2019-03-02T00:24:01.590Z,0
2019-03-02T00:25:11.578Z,0
2019-03-02T00:26:21.518Z,0
2019-03-02T00:27:31.474Z,0
2019-03-02T00:28:42.783Z,0
2019-03-02T00:29:53.639Z,0
2019-03-02T00:31:05.145Z,0
2019-03-02T00:32:16.694Z,0
2019-03-02T00:33:27.636Z,0
2019-03-02T00:34:38.994Z,0
2019-03-02T00:35:50.964Z,0
2019-03-02T00:37:03.380Z,0
2019-03-02T00:38:16.105Z,0
2019-03-02T00:39:27.057Z,0
2019-03-02T00:40:38.748Z,0
2019-03-02T00:41:49.426Z,0
2019-03-02T00:42:59.504Z,0
2019-03-02T00:44:11.063Z,0
2019-03-02T00:45:22.492Z,0
2019-03-02T00:46:32.441Z,0
2019-03-02T00:47:43.421Z,0
2019-03-02T00:48:54.192Z,0
2019-03-02T00:50:07.934Z,0
2019-03-02T00:51:18.449Z,0
2019-03-02T00:52:30.687Z,0
2019-03-02T00:53:42.775Z,0
2019-03-02T00:55:03.149Z,0
2019-03-02T00:56:14.979Z,0
2019-03-02T00:57:25.915Z,0
2019-03-02T00:58:36.961Z,0
2019-03-02T00:59:47.283Z,0
2019-03-02T01:01:00.191Z,0
2019-03-02T01:02:12.539Z,0
2019-03-02T01:03:23.002Z,0
2019-03-02T01:04:33.692Z,0
2019-03-02T01:05:44.390Z,0
2019-03-02T01:06:55.936Z,0
2019-03-02T01:08:07.124Z,0
2019-03-02T01:09:19.872Z,0
2019-03-02T01:10:30.493Z,0
2019-03-02T01:11:41.351Z,0
2019-03-02T01:12:52.457Z,0
2019-03-02T01:14:04.065Z,0
2019-03-02T01:15:15.680Z,0
2019-03-02T01:16:27.226Z,0
2019-03-02T01:17:38.662Z,0
2019-03-02T01:18:49.657Z,0
2019-03-02T01:20:00.810Z,0
2019-03-02T01:21:12.145Z,0
2019-03-02T01:22:23.755Z,0
2019-03-02T01:23:34.797Z,0
2019-03-02T01:24:46.238Z,0
2019-03-02T01:25:56.931Z,0
2019-03-02T01:27:07.532Z,0
2019-03-02T01:28:17.853Z,0
2019-03-02T01:29:27.804Z,0
2019-03-02T01:30:38.148Z,0
2019-03-02T01:31:48.717Z,0
2019-03-02T01:33:00.060Z,0
2019-03-02T01:34:13.260Z,0
2019-03-02T01:35:24.812Z,0
2019-03-02T01:36:38.129Z,0
2019-03-02T01:37:51.169Z,0
2019-03-02T01:39:01.839Z,0
2019-03-02T01:40:13.073Z,0
2019-03-02T01:41:25.082Z,0
2019-03-02T01:42:36.959Z,0
2019-03-02T01:43:48.474Z,0
2019-03-02T01:44:58.666Z,0
2019-03-02T01:46:10.691Z,0
2019-03-02T01:47:23.925Z,0
2019-03-02T01:48:35.081Z,0
2019-03-02T01:49:44.753Z,0
2019-03-02T01:50:56.031Z,0
2019-03-02T01:52:06.021Z,0
2019-03-02T01:53:17.150Z,0
2019-03-02T01:54:28.336Z,0
2019-03-02T01:55:38.958Z,0
2019-03-02T01:56:49.837Z,0
2019-03-02T01:58:00.204Z,0
2019-03-02T01:59:11.177Z,0
2019-03-02T02:00:21.745Z,0
2019-03-02T02:01:32.977Z,0
2019-03-02T02:02:43.439Z,0
2019-03-02T02:03:54.452Z,0
2019-03-02T02:05:05.476Z,0
2019-03-02T02:06:15.952Z,0
2019-03-02T02:07:26.531Z,0
2019-03-02T02:08:37.146Z,0
2019-03-02T02:09:47.877Z,0
2019-03-02T02:10:57.813Z,0
2019-03-02T02:12:07.543Z,0
2019-03-02T02:13:17.564Z,0
2019-03-02T02:14:27.499Z,0
2019-03-02T02:15:37.610Z,0
2019-03-02T02:16:49.068Z,0
2019-03-02T02:17:59.987Z,0
2019-03-02T02:19:10.276Z,0
2019-03-02T02:20:21.795Z,0
2019-03-02T02:21:33.873Z,0
2019-03-02T02:22:45.174Z,0
2019-03-02T02:23:57.109Z,0
2019-03-02T02:25:07.830Z,0
2019-03-02T02:26:18.360Z,0
2019-03-02T02:27:30.565Z,0
2019-03-02T02:28:40.670Z,0
2019-03-02T02:29:51.495Z,0
2019-03-02T02:31:10.305Z,0
2019-03-02T02:32:28.242Z,0
2019-03-02T02:33:45.105Z,0
2019-03-02T02:35:03.040Z,0
2019-03-02T02:36:20.574Z,0
2019-03-02T02:37:38.853Z,0
2019-03-02T02:38:56.470Z,0
2019-03-02T02:40:12.440Z,0
2019-03-02T02:41:29.964Z,0
2019-03-02T02:42:45.464Z,0
2019-03-02T02:44:03.331Z,0
2019-03-02T02:45:19.266Z,0
2019-03-02T02:46:37.033Z,0
2019-03-02T02:47:56.927Z,0
2019-03-02T02:49:12.666Z,0
2019-03-02T02:50:31.505Z,0
2019-03-02T02:51:44.289Z,0
2019-03-02T02:53:05.828Z,0
2019-03-02T02:54:22.329Z,0
2019-03-02T02:55:35.961Z,0
2019-03-02T02:56:54.050Z,0
2019-03-02T02:58:06.332Z,0
2019-03-02T02:59:24.473Z,0
2019-03-02T03:00:35.701Z,0
2019-03-02T03:01:45.532Z,0
2019-03-02T03:02:55.273Z,0
2019-03-02T03:04:06.898Z,0
2019-03-02T03:05:20.237Z,0
2019-03-02T03:06:35.179Z,0
2019-03-02T03:07:55.869Z,0
2019-03-02T03:09:13.832Z,0
2019-03-02T03:10:30.554Z,0
2019-03-02T03:11:48.579Z,0
2019-03-02T03:13:06.776Z,0
2019-03-02T03:14:24.085Z,0
2019-03-02T03:15:41.405Z,0
2019-03-02T03:16:56.638Z,0
2019-03-02T03:18:14.871Z,0
2019-03-02T03:19:32.872Z,0
2019-03-02T03:20:50.882Z,0
2019-03-02T03:22:09.134Z,0
2019-03-02T03:23:26.617Z,0
2019-03-02T03:24:42.576Z,0
2019-03-02T03:26:00.909Z,0
2019-03-02T03:27:15.927Z,0
2019-03-02T03:28:32.652Z,0
2019-03-02T03:29:49.279Z,0
2019-03-02T03:31:00.023Z,0
2019-03-02T03:32:18.788Z,0
2019-03-02T03:33:41.253Z,0
2019-03-02T03:34:54.977Z,0
2019-03-02T03:36:04.964Z,0
2019-03-02T03:37:19.870Z,0
2019-03-02T03:38:34.267Z,0
2019-03-02T03:39:48.948Z,0
2019-03-02T03:41:06.906Z,0
2019-03-02T03:42:24.902Z,0
2019-03-02T03:43:44.502Z,0
2019-03-02T03:44:54.522Z,0
2019-03-02T03:46:11.265Z,0
2019-03-02T03:47:28.998Z,0
2019-03-02T03:48:41.859Z,0
2019-03-02T03:49:51.304Z,0
2019-03-02T03:51:01.056Z,0
2019-03-02T03:52:16.485Z,0
2019-03-02T03:53:34.368Z,0
2019-03-02T03:54:50.431Z,0
2019-03-02T03:56:08.306Z,0
2019-03-02T03:57:24.279Z,0
2019-03-02T03:58:39.774Z,0
2019-03-02T03:59:53.341Z,0
2019-03-02T04:01:16.682Z,0
2019-03-02T04:02:31.086Z,0
2019-03-02T04:03:46.910Z,0
2019-03-02T04:05:06.806Z,0
2019-03-02T04:06:18.042Z,0
2019-03-02T04:07:34.775Z,0
2019-03-02T04:08:44.743Z,0
2019-03-02T04:09:55.521Z,0
2019-03-02T04:11:11.297Z,0
2019-03-02T04:12:27.008Z,0
2019-03-02T04:13:46.880Z,0
2019-03-02T04:15:03.368Z,0
2019-03-02T04:16:16.088Z,0
2019-03-02T04:17:34.002Z,0
2019-03-02T04:18:55.071Z,0
2019-03-02T04:20:14.142Z,0
2019-03-02T04:21:32.366Z,0
2019-03-02T04:22:47.406Z,0
2019-03-02T04:24:05.817Z,0
2019-03-02T04:25:23.974Z,0
2019-03-02T04:26:41.655Z,0
2019-03-02T04:27:58.682Z,0
2019-03-02T04:29:16.608Z,0
2019-03-02T04:30:37.982Z,0
2019-03-02T04:31:55.385Z,0
2019-03-02T04:33:12.568Z,0
2019-03-02T04:34:27.668Z,0
2019-03-02T04:35:41.216Z,0
2019-03-02T04:36:54.403Z,0
2019-03-02T04:38:08.048Z,0
2019-03-02T04:39:21.081Z,0
2019-03-02T04:40:35.669Z,0
2019-03-02T04:41:46.600Z,0
2019-03-02T04:42:57.304Z,0
2019-03-02T04:44:07.237Z,0
2019-03-02T04:45:17.178Z,0
2019-03-02T04:46:27.101Z,0
2019-03-02T04:47:36.783Z,0
2019-03-02T04:48:47.210Z,0
2019-03-02T04:49:58.662Z,0
2019-03-02T04:51:09.859Z,0
2019-03-02T04:52:21.767Z,0
2019-03-02T04:53:33.024Z,0
2019-03-02T04:54:44.897Z,0
2019-03-02T04:55:55.928Z,0
2019-03-02T04:57:06.991Z,0
2019-03-02T04:58:19.279Z,0
2019-03-02T04:59:29.926Z,0
2019-03-02T05:00:40.011Z,0
2019-03-02T05:01:53.113Z,0
2019-03-02T05:03:03.317Z,0
2019-03-02T05:04:13.014Z,0
2019-03-02T05:05:22.951Z,0
2019-03-02T05:06:32.881Z,0
2019-03-02T05:07:42.641Z,0
2019-03-02T05:08:52.607Z,0
2019-03-02T05:10:02.654Z,0
2019-03-02T05:11:12.586Z,0
2019-03-02T05:12:22.702Z,0
2019-03-02T05:13:35.465Z,0
2019-03-02T05:14:47.458Z,0
2019-03-02T05:15:59.558Z,0
2019-03-02T05:17:12.204Z,0
2019-03-02T05:18:25.320Z,0
2019-03-02T05:19:36.120Z,0
2019-03-02T05:20:48.323Z,0
2019-03-02T05:21:58.004Z,0
2019-03-02T05:23:07.945Z,0
2019-03-02T05:24:17.876Z,0
2019-03-02T05:25:27.814Z,4
2019-03-02T05:26:37.761Z,4
2019-03-02T05:27:47.691Z,0
2019-03-02T05:28:57.123Z,0
2019-03-02T05:30:07.065Z,4
2019-03-02T05:31:18.696Z,4
2019-03-02T05:32:28.659Z,4
2019-03-02T05:33:38.363Z,4
2019-03-02T05:34:48.315Z,8
2019-03-02T05:35:58.672Z,4
2019-03-02T05:37:10.236Z,8
2019-03-02T05:38:22.233Z,12
2019-03-02T05:39:32.176Z,12
2019-03-02T05:40:41.625Z,12
2019-03-02T05:41:53.144Z,12
2019-03-02T05:43:03.224Z,16
2019-03-02T05:44:12.665Z,20
2019-03-02T05:45:27.056Z,20
2019-03-02T05:46:36.741Z,24
2019-03-02T05:47:46.711Z,28
2019-03-02T05:48:55.894Z,32
2019-03-02T05:50:05.583Z,36
2019-03-02T05:51:15.287Z,40
2019-03-02T05:52:25.893Z,44
2019-03-02T05:53:37.494Z,52
2019-03-02T05:54:48.852Z,56
2019-03-02T05:56:01.072Z,64
2019-03-02T05:57:12.113Z,72
2019-03-02T05:58:24.021Z,80
2019-03-02T05:59:34.756Z,84
2019-03-02T06:00:45.872Z,96
2019-03-02T06:01:55.913Z,108
2019-03-02T06:03:05.623Z,120
2019-03-02T06:04:18.737Z,128
2019-03-02T06:05:29.490Z,136
2019-03-02T06:06:39.242Z,140
2019-03-02T06:07:49.202Z,148
2019-03-02T06:09:01.555Z,156
2019-03-02T06:10:13.557Z,172
2019-03-02T06:11:23.438Z,188
2019-03-02T06:12:33.133Z,204
2019-03-02T06:13:43.093Z,212
2019-03-02T06:14:53.045Z,224
2019-03-02T06:16:02.987Z,236
2019-03-02T06:17:12.687Z,252
2019-03-02T06:18:22.614Z,268
2019-03-02T06:19:32.547Z,288
2019-03-02T06:20:44.688Z,304
2019-03-02T06:21:54.422Z,324
2019-03-02T06:23:04.379Z,344
2019-03-02T06:24:15.445Z,360
2019-03-02T06:25:28.613Z,372
2019-03-02T06:26:40.415Z,376
2019-03-02T06:27:54.139Z,380
2019-03-02T06:29:05.091Z,388
2019-03-02T06:30:15.874Z,392
2019-03-02T06:31:26.323Z,400
2019-03-02T06:32:38.371Z,412
2019-03-02T06:33:51.177Z,424
2019-03-02T06:35:02.977Z,436
2019-03-02T06:36:15.931Z,448
2019-03-02T06:37:27.284Z,464
2019-03-02T06:38:39.204Z,476
2019-03-02T06:39:51.652Z,488
2019-03-02T06:41:05.295Z,484
2019-03-02T06:42:17.234Z,484
2019-03-02T06:43:29.003Z,488
2019-03-02T06:44:41.495Z,500
2019-03-02T06:45:51.545Z,516
2019-03-02T06:47:03.123Z,548
2019-03-02T06:48:16.710Z,584
2019-03-02T06:49:28.104Z,624
2019-03-02T06:50:40.544Z,652
2019-03-02T06:51:52.885Z,664
2019-03-02T06:53:06.098Z,676
2019-03-02T06:54:21.858Z,692
2019-03-02T06:55:32.642Z,708
2019-03-02T06:56:45.630Z,712
2019-03-02T06:58:04.936Z,716
2019-03-02T06:59:14.873Z,716
2019-03-02T07:00:24.561Z,724
2019-03-02T07:01:34.263Z,752
2019-03-02T07:02:44.183Z,812
2019-03-02T07:03:54.129Z,860
2019-03-02T07:05:04.799Z,896
2019-03-02T07:06:16.558Z,920
2019-03-02T07:07:29.114Z,940
2019-03-02T07:08:41.184Z,956
2019-03-02T07:09:52.596Z,984
2019-03-02T07:11:05.182Z,1008
2019-03-02T07:12:16.716Z,1020
2019-03-02T07:13:29.469Z,1040
2019-03-02T07:14:39.305Z,1052
2019-03-02T07:15:51.924Z,1060
2019-03-02T07:17:03.180Z,1072
2019-03-02T07:18:15.056Z,1084
2019-03-02T07:19:24.985Z,1104
2019-03-02T07:20:35.413Z,1132
2019-03-02T07:21:48.713Z,1180
2019-03-02T07:22:59.655Z,1244
2019-03-02T07:24:09.346Z,1336
2019-03-02T07:25:19.522Z,1436
2019-03-02T07:26:29.462Z,1524
2019-03-02T07:27:39.409Z,1604
2019-03-02T07:28:50.120Z,1652
2019-03-02T07:30:00.918Z,1660
2019-03-02T07:31:10.861Z,1664
2019-03-02T07:32:20.851Z,1684
2019-03-02T07:33:30.289Z,1736
2019-03-02T07:34:43.638Z,1820
2019-03-02T07:35:58.096Z,1884
2019-03-02T07:37:11.614Z,1924
2019-03-02T07:38:25.330Z,1996
2019-03-02T07:39:41.323Z,2096
2019-03-02T07:40:52.534Z,2152
2019-03-02T07:42:05.222Z,2196
2019-03-02T07:43:17.017Z,2240
2019-03-02T07:44:29.274Z,2300
2019-03-02T07:45:41.999Z,2348
2019-03-02T07:46:55.272Z,2376
2019-03-02T07:48:07.482Z,2396
2019-03-02T07:49:20.290Z,2404
2019-03-02T07:50:34.553Z,2412
2019-03-02T07:51:46.459Z,2388
2019-03-02T07:52:57.599Z,2336
2019-03-02T07:54:10.873Z,2316
2019-03-02T07:55:24.949Z,2372
2019-03-02T07:56:37.341Z,2476
2019-03-02T07:57:48.673Z,2508
2019-03-02T07:58:59.734Z,2492
2019-03-02T08:00:12.541Z,2504
2019-03-02T08:01:23.934Z,2520
2019-03-02T08:02:36.883Z,2520
2019-03-02T08:03:46.829Z,2540
2019-03-02T08:04:56.809Z,2616
2019-03-02T08:06:08.560Z,2708
2019-03-02T08:07:18.259Z,2784
2019-03-02T08:08:27.457Z,2840
2019-03-02T08:09:37.150Z,2892
2019-03-02T08:10:47.065Z,2940
2019-03-02T08:11:57.117Z,3036
2019-03-02T08:13:08.622Z,3208
2019-03-02T08:14:20.977Z,3356
2019-03-02T08:15:31.792Z,3376
2019-03-02T08:16:44.951Z,3324
2019-03-02T08:17:56.461Z,3304
2019-03-02T08:19:08.527Z,3332
2019-03-02T08:20:20.633Z,3352
2019-03-02T08:21:35.759Z,3340
2019-03-02T08:22:48.754Z,3348
2019-03-02T08:23:58.692Z,3388
2019-03-02T08:25:08.640Z,3436
2019-03-02T08:26:18.577Z,3504
2019-03-02T08:27:34.607Z,3544
2019-03-02T08:28:48.313Z,3556
2019-03-02T08:30:02.053Z,3584
2019-03-02T08:31:13.836Z,3600
2019-03-02T08:32:26.336Z,3572
2019-03-02T08:33:48.020Z,3512
2019-03-02T08:34:57.728Z,3488
2019-03-02T08:36:07.431Z,3476
2019-03-02T08:37:26.619Z,3396
2019-03-02T08:38:38.133Z,3292
2019-03-02T08:39:51.556Z,3256
2019-03-02T08:41:05.311Z,3268
2019-03-02T08:42:17.608Z,3292
2019-03-02T08:43:27.551Z,3312
2019-03-02T08:44:37.484Z,3360
2019-03-02T08:45:47.188Z,3416
2019-03-02T08:46:56.888Z,3452
2019-03-02T08:48:07.294Z,3496
2019-03-02T08:49:16.998Z,3512
2019-03-02T08:50:26.731Z,3496
2019-03-02T08:51:36.678Z,3480
2019-03-02T08:52:46.631Z,3488
2019-03-02T08:53:56.077Z,3520
2019-03-02T08:55:06.017Z,3588
2019-03-02T08:56:18.850Z,3688
2019-03-02T08:57:30.478Z,3820
2019-03-02T08:58:40.417Z,3956
2019-03-02T08:59:50.116Z,4088
2019-03-02T09:00:59.806Z,4244
2019-03-02T09:02:09.761Z,4360
2019-03-02T09:03:19.764Z,4372
2019-03-02T09:04:29.467Z,4336
2019-03-02T09:05:58.004Z,4200
2019-03-02T09:07:11.371Z,4052
2019-03-02T09:08:21.336Z,3908
2019-03-02T09:09:31.282Z,3792
2019-03-02T09:10:41.919Z,3736
2019-03-02T09:11:53.565Z,3780
2019-03-02T09:13:06.765Z,3904
2019-03-02T09:14:19.266Z,4072
2019-03-02T09:15:34.745Z,4248
2019-03-02T09:16:47.284Z,4356
2019-03-02T09:18:02.698Z,4416
2019-03-02T09:19:12.650Z,4444
2019-03-02T09:20:24.526Z,4436
2019-03-02T09:21:34.499Z,4388
2019-03-02T09:22:44.181Z,4276
2019-03-02T09:23:56.514Z,4172
2019-03-02T09:25:06.233Z,4128
2019-03-02T09:26:17.425Z,4120
2019-03-02T09:27:27.834Z,4116
2019-03-02T09:28:37.802Z,4120
2019-03-02T09:29:47.740Z,4140
2019-03-02T09:31:04.087Z,4204
2019-03-02T09:32:16.687Z,4228
2019-03-02T09:33:32.078Z,4244
2019-03-02T09:34:45.335Z,4356
2019-03-02T09:36:02.199Z,4500
2019-03-02T09:37:14.403Z,4596
2019-03-02T09:38:28.204Z,4576
2019-03-02T09:39:42.210Z,4428
2019-03-02T09:40:53.960Z,4280
2019-03-02T09:42:06.409Z,4212
2019-03-02T09:43:18.718Z,4216
2019-03-02T09:44:28.724Z,4244
2019-03-02T09:45:41.288Z,4268
2019-03-02T09:46:52.494Z,4288
2019-03-02T09:48:02.256Z,4304
2019-03-02T09:49:14.517Z,4336
2019-03-02T09:50:26.280Z,4412
2019-03-02T09:51:36.220Z,4520
2019-03-02T09:52:48.178Z,4628
2019-03-02T09:53:58.149Z,4700
2019-03-02T09:55:08.097Z,4696
2019-03-02T09:56:18.534Z,4692
2019-03-02T09:57:30.054Z,4764
2019-03-02T09:58:39.353Z,4820
2019-03-02T09:59:52.620Z,4844
2019-03-02T10:01:09.369Z,4812
2019-03-02T10:02:21.697Z,4724
2019-03-02T10:03:34.833Z,4588
2019-03-02T10:04:46.603Z,4404
2019-03-02T10:05:57.202Z,4252
2019-03-02T10:07:09.334Z,4144
2019-03-02T10:08:20.642Z,4032
2019-03-02T10:09:33.876Z,3924
2019-03-02T10:10:43.820Z,3872
2019-03-02T10:11:53.279Z,3908
2019-03-02T10:13:02.977Z,3972
2019-03-02T10:14:12.935Z,3992
2019-03-02T10:15:24.021Z,4140
2019-03-02T10:16:33.490Z,4256
2019-03-02T10:17:45.338Z,4292
2019-03-02T10:18:57.103Z,4284
2019-03-02T10:20:11.734Z,4320
2019-03-02T10:21:21.428Z,4452
2019-03-02T10:22:31.398Z,4616
2019-03-02T10:23:46.630Z,4736
2019-03-02T10:24:58.114Z,4860
2019-03-02T10:26:12.414Z,4980
2019-03-02T10:27:25.929Z,5088
2019-03-02T10:28:38.297Z,5232
2019-03-02T10:29:53.207Z,5428
2019-03-02T10:31:06.042Z,5584
2019-03-02T10:32:16.183Z,5652
2019-03-02T10:33:28.603Z,5652
2019-03-02T10:34:44.530Z,5676
2019-03-02T10:35:58.197Z,5664
2019-03-02T10:37:12.158Z,5588
2019-03-02T10:38:26.286Z,5640
2019-03-02T10:39:39.974Z,5864
2019-03-02T10:40:51.747Z,6036
2019-03-02T10:42:05.411Z,6068
2019-03-02T10:43:17.731Z,5920
2019-03-02T10:44:28.553Z,5736
2019-03-02T10:45:38.309Z,5568
2019-03-02T10:46:48.285Z,5340
2019-03-02T10:47:58.994Z,5336
2019-03-02T10:49:14.087Z,5368
2019-03-02T10:50:27.987Z,5288
2019-03-02T10:51:42.397Z,5280
2019-03-02T10:52:53.857Z,5240
2019-03-02T10:54:06.940Z,5248
2019-03-02T10:55:20.201Z,5240
2019-03-02T10:56:31.734Z,5124
2019-03-02T10:57:41.683Z,5004
2019-03-02T10:58:51.371Z,5172
2019-03-02T11:00:01.332Z,5392
2019-03-02T11:01:14.530Z,5444
2019-03-02T11:02:28.299Z,5460
2019-03-02T11:03:38.703Z,5408
2019-03-02T11:04:51.509Z,5408
2019-03-02T11:06:04.256Z,5396
2019-03-02T11:07:17.510Z,5356
2019-03-02T11:08:31.178Z,5364
2019-03-02T11:09:44.573Z,5332
2019-03-02T11:10:57.211Z,5344
2019-03-02T11:12:11.397Z,5424
2019-03-02T11:13:24.264Z,5516
2019-03-02T11:14:36.863Z,5684
2019-03-02T11:15:52.327Z,5844
2019-03-02T11:17:03.998Z,5820
2019-03-02T11:18:13.984Z,5684
2019-03-02T11:19:23.956Z,5524
2019-03-02T11:20:33.645Z,5380
2019-03-02T11:21:43.327Z,5376
2019-03-02T11:22:53.007Z,5416
2019-03-02T11:24:04.787Z,5532
2019-03-02T11:25:14.746Z,5688
2019-03-02T11:26:24.701Z,5800
2019-03-02T11:27:34.643Z,5856
2019-03-02T11:28:44.338Z,5956
2019-03-02T11:29:58.339Z,6068
2019-03-02T11:31:08.309Z,6144
2019-03-02T11:32:22.945Z,6192
2019-03-02T11:33:35.949Z,6136
2019-03-02T11:34:45.896Z,6176
2019-03-02T11:35:55.847Z,6236
2019-03-02T11:37:05.792Z,6288
2019-03-02T11:38:15.745Z,6308
2019-03-02T11:39:25.454Z,6328
2019-03-02T11:40:38.008Z,6352
2019-03-02T11:41:47.701Z,6388
2019-03-02T11:42:57.395Z,6396
2019-03-02T11:44:09.535Z,6440
2019-03-02T11:45:19.419Z,6684
2019-03-02T11:46:29.377Z,6976
2019-03-02T11:47:41.201Z,7196
2019-03-02T11:49:01.794Z,7304
2019-03-02T11:50:14.267Z,7348
2019-03-02T11:51:27.079Z,7452
2019-03-02T11:52:41.063Z,7580
2019-03-02T11:53:54.611Z,7684
2019-03-02T11:55:11.100Z,7800
2019-03-02T11:56:32.283Z,7976
2019-03-02T11:57:42.219Z,8072
2019-03-02T11:58:52.168Z,8140
2019-03-02T12:00:04.539Z,8180
2019-03-02T12:01:14.489Z,8180
2019-03-02T12:02:28.726Z,8200
2019-03-02T12:03:41.691Z,8320
2019-03-02T12:04:54.553Z,8596
2019-03-02T12:06:10.319Z,8908
2019-03-02T12:07:20.281Z,9092
2019-03-02T12:08:30.698Z,9232
2019-03-02T12:09:40.153Z,9400
2019-03-02T12:10:50.099Z,9564
2019-03-02T12:11:59.797Z,9688
2019-03-02T12:13:10.973Z,9780
2019-03-02T12:14:20.957Z,9812
2019-03-02T12:15:32.179Z,9808
2019-03-02T12:16:43.092Z,9772
2019-03-02T12:17:55.238Z,9584
2019-03-02T12:19:07.631Z,9184
2019-03-02T12:20:19.169Z,8752
2019-03-02T12:21:29.362Z,8484
2019-03-02T12:22:41.657Z,8312
2019-03-02T12:23:50.865Z,7996
2019-03-02T12:25:03.301Z,7348
2019-03-02T12:26:15.881Z,6724
2019-03-02T12:27:29.324Z,6388
2019-03-02T12:28:42.604Z,6312
2019-03-02T12:29:54.288Z,6352
2019-03-02T12:31:04.004Z,6284
2019-03-02T12:32:14.863Z,6136
2019-03-02T12:33:27.943Z,6084
2019-03-02T12:34:41.573Z,6164
2019-03-02T12:35:51.545Z,6416
2019-03-02T12:37:01.747Z,6840
2019-03-02T12:38:17.643Z,7160
2019-03-02T12:39:31.255Z,7172
2019-03-02T12:40:44.823Z,7036
2019-03-02T12:41:57.564Z,6956
2019-03-02T12:43:12.405Z,6984
2019-03-02T12:44:26.269Z,7048
2019-03-02T12:45:38.705Z,7100
2019-03-02T12:46:51.749Z,7264
2019-03-02T12:48:07.452Z,7516
2019-03-02T12:49:18.334Z,7768
2019-03-02T12:50:30.664Z,7852
2019-03-02T12:51:44.376Z,7728
2019-03-02T12:52:56.659Z,7740
2019-03-02T12:54:09.824Z,7844
2019-03-02T12:55:23.196Z,8108
2019-03-02T12:56:37.822Z,8484
2019-03-02T12:57:52.775Z,8752
2019-03-02T12:59:08.789Z,8828
2019-03-02T13:00:18.741Z,8768
2019-03-02T13:01:28.445Z,8648
2019-03-02T13:02:43.369Z,8680
2019-03-02T13:03:55.374Z,8704
2019-03-02T13:05:05.113Z,8460
2019-03-02T13:06:15.083Z,8156
2019-03-02T13:07:24.774Z,8112
2019-03-02T13:08:37.282Z,8176
2019-03-02T13:09:48.187Z,8240
2019-03-02T13:11:00.758Z,8360
2019-03-02T13:12:14.765Z,8604
2019-03-02T13:13:28.017Z,8840
2019-03-02T13:14:41.248Z,9040
2019-03-02T13:15:54.350Z,9532
2019-03-02T13:17:08.488Z,10152
2019-03-02T13:18:21.131Z,9964
2019-03-02T13:19:34.049Z,9472
2019-03-02T13:20:46.594Z,8672
2019-03-02T13:21:58.855Z,8480
2019-03-02T13:23:11.533Z,9192
2019-03-02T13:24:25.121Z,9764
2019-03-02T13:25:39.208Z,10076
2019-03-02T13:26:53.399Z,9876
2019-03-02T13:28:07.583Z,9172
2019-03-02T13:29:21.283Z,9068
2019-03-02T13:30:34.455Z,9820
2019-03-02T13:31:48.643Z,9724
2019-03-02T13:33:00.894Z,9332
2019-03-02T13:34:14.120Z,9096
2019-03-02T13:35:28.293Z,8768
2019-03-02T13:36:39.901Z,8316
2019-03-02T13:37:57.133Z,7544
2019-03-02T13:39:17.456Z,6808
2019-03-02T13:40:36.203Z,6324
2019-03-02T13:41:48.962Z,6028
2019-03-02T13:43:04.407Z,5836
2019-03-02T13:44:14.631Z,5660
2019-03-02T13:45:26.422Z,5528
2019-03-02T13:46:39.801Z,5344
2019-03-02T13:47:53.677Z,5100
2019-03-02T13:49:06.659Z,4832
2019-03-02T13:50:20.274Z,4612
2019-03-02T13:51:37.269Z,4668
2019-03-02T13:52:50.668Z,4456
2019-03-02T13:54:07.821Z,4324
2019-03-02T13:55:20.822Z,4244
2019-03-02T13:56:34.913Z,4312
2019-03-02T13:57:46.851Z,4452
2019-03-02T13:58:59.768Z,4664
2019-03-02T14:00:12.774Z,4936
2019-03-02T14:01:27.843Z,5172
2019-03-02T14:02:41.496Z,5272
2019-03-02T14:03:56.043Z,5408
2019-03-02T14:05:12.200Z,5296
2019-03-02T14:06:25.653Z,5056
2019-03-02T14:07:38.750Z,4888
2019-03-02T14:08:50.762Z,4728
2019-03-02T14:10:00.716Z,4656
2019-03-02T14:11:10.685Z,4556
2019-03-02T14:12:24.798Z,4512
2019-03-02T14:13:37.567Z,4592
2019-03-02T14:14:49.723Z,4744
2019-03-02T14:16:04.427Z,4664
2019-03-02T14:17:16.737Z,4508
2019-03-02T14:18:31.094Z,4568
2019-03-02T14:19:48.350Z,4872
2019-03-02T14:21:01.190Z,5176
2019-03-02T14:22:14.772Z,5344
2019-03-02T14:23:31.998Z,5452
2019-03-02T14:24:49.355Z,5768
2019-03-02T14:26:04.912Z,6460
2019-03-02T14:27:14.881Z,7180
2019-03-02T14:28:24.637Z,7580
2019-03-02T14:29:38.074Z,7500
2019-03-02T14:30:52.455Z,7412
2019-03-02T14:32:04.645Z,7276
2019-03-02T14:33:17.597Z,7140
2019-03-02T14:34:27.298Z,7300
2019-03-02T14:35:39.681Z,7196
2019-03-02T14:36:49.158Z,6820
2019-03-02T14:37:59.123Z,6264
2019-03-02T14:39:09.701Z,5908
2019-03-02T14:40:21.893Z,5824
2019-03-02T14:41:36.087Z,5888
2019-03-02T14:42:48.046Z,5908
2019-03-02T14:44:02.118Z,6040
2019-03-02T14:45:14.678Z,6180
2019-03-02T14:46:28.262Z,6552
2019-03-02T14:47:41.249Z,6620
2019-03-02T14:48:54.218Z,6592
2019-03-02T14:50:10.704Z,6368
2019-03-02T14:51:24.300Z,6144
2019-03-02T14:52:38.002Z,5928
2019-03-02T14:53:50.129Z,5784
2019-03-02T14:55:01.774Z,5884
2019-03-02T14:56:16.317Z,6232
2019-03-02T14:57:29.588Z,7048
2019-03-02T14:58:42.498Z,8312
2019-03-02T14:59:55.223Z,9064
2019-03-02T15:01:09.480Z,9604
2019-03-02T15:02:21.518Z,8900
2019-03-02T15:03:36.442Z,8752
2019-03-02T15:04:50.161Z,8648
2019-03-02T15:06:12.195Z,8436
2019-03-02T15:07:27.271Z,8092
2019-03-02T15:08:42.235Z,7748
2019-03-02T15:09:54.553Z,7160
2019-03-02T15:11:08.178Z,6344
2019-03-02T15:12:20.975Z,5672
2019-03-02T15:13:34.427Z,5128
2019-03-02T15:14:47.422Z,4472
2019-03-02T15:16:01.349Z,3944
2019-03-02T15:17:14.819Z,3780
2019-03-02T15:18:32.859Z,3680
2019-03-02T15:20:00.873Z,3424
2019-03-02T15:21:14.164Z,3332
2019-03-02T15:22:29.167Z,3312
2019-03-02T15:23:44.319Z,3376
2019-03-02T15:24:58.260Z,3388
2019-03-02T15:26:11.263Z,3212
2019-03-02T15:27:26.948Z,3032
2019-03-02T15:28:42.629Z,2928
2019-03-02T15:29:55.235Z,2864
2019-03-02T15:31:10.719Z,2700
2019-03-02T15:32:25.082Z,2560
2019-03-02T15:33:40.207Z,2604
2019-03-02T15:35:00.553Z,2724
2019-03-02T15:36:13.689Z,2828
2019-03-02T15:37:26.729Z,2868
2019-03-02T15:38:40.020Z,2876
2019-03-02T15:39:56.111Z,2992
2019-03-02T15:41:09.120Z,3332
2019-03-02T15:42:23.745Z,3868
2019-03-02T15:43:37.251Z,4112
2019-03-02T15:44:51.564Z,3992
2019-03-02T15:46:05.494Z,3772
2019-03-02T15:47:18.791Z,3532
2019-03-02T15:48:32.044Z,3396
2019-03-02T15:49:45.155Z,3360
2019-03-02T15:50:59.089Z,3296
2019-03-02T15:52:12.740Z,3132
2019-03-02T15:53:25.347Z,2968
2019-03-02T15:54:38.895Z,2852
2019-03-02T15:55:54.876Z,2748
2019-03-02T15:57:11.634Z,2592
2019-03-02T15:58:25.785Z,2344
2019-03-02T15:59:42.759Z,2060
2019-03-02T16:00:57.183Z,1856
2019-03-02T16:02:09.205Z,1776
2019-03-02T16:03:24.197Z,1724
2019-03-02T16:04:41.590Z,1660
2019-03-02T16:05:57.275Z,1600
2019-03-02T16:07:09.338Z,1532
2019-03-02T16:08:22.881Z,1436
2019-03-02T16:09:37.937Z,1316
2019-03-02T16:10:51.419Z,1224
2019-03-02T16:12:04.051Z,1160
2019-03-02T16:13:20.623Z,1108
2019-03-02T16:14:36.233Z,1044
2019-03-02T16:15:52.212Z,956
2019-03-02T16:17:05.835Z,884
2019-03-02T16:18:19.093Z,804
2019-03-02T16:19:35.968Z,752
2019-03-02T16:20:49.057Z,708
2019-03-02T16:22:02.118Z,652
2019-03-02T16:23:14.387Z,580
2019-03-02T16:24:29.491Z,524
2019-03-02T16:25:42.518Z,472
2019-03-02T16:26:57.399Z,440
2019-03-02T16:28:12.716Z,416
2019-03-02T16:29:26.378Z,412
2019-03-02T16:30:41.532Z,392
2019-03-02T16:31:52.188Z,376
2019-03-02T16:33:02.665Z,352
2019-03-02T16:34:17.366Z,332
2019-03-02T16:35:29.752Z,320
2019-03-02T16:36:48.416Z,312
2019-03-02T16:38:01.268Z,304
2019-03-02T16:39:15.313Z,292
2019-03-02T16:40:29.555Z,276
2019-03-02T16:41:41.466Z,256
2019-03-02T16:42:55.854Z,220
2019-03-02T16:44:07.892Z,192
2019-03-02T16:45:17.339Z,164